sensor_id;sensor_type;location;lat;lon;timestamp;P1;durP1;ratioP1;P2;durP2;ratioP2
7324;SDS011;3703;48.016;7.802;2022-07-19T00:01:58;5.40;;;4.90;;
7324;SDS011;3703;48.016;7.802;2022-07-19T00:04:47;6.30;;;4.80;;
7324;SDS011;3703;48.016;7.802;2022-07-19T00:07:35;5.57;;;4.87;;
7324;SDS011;3703;48.016;7.802;2022-07-19T00:10:23;6.40;;;4.97;;
7324;SDS011;3703;48.016;7.802;2022-07-19T00:13:11;5.07;;;4.57;;
7324;SDS011;3703;48.016;7.802;2022-07-19T00:15:59;5.23;;;4.57;;
7324;SDS011;3703;48.016;7.802;2022-07-19T00:18:46;5.10;;;4.40;;
7324;SDS011;3703;48.016;7.802;2022-07-19T00:21:36;5.83;;;4.73;;
7324;SDS011;3703;48.016;7.802;2022-07-19T00:24:23;5.20;;;4.60;;
7324;SDS011;3703;48.016;7.802;2022-07-19T00:27:11;5.60;;;5.10;;
7324;SDS011;3703;48.016;7.802;2022-07-19T00:29:59;5.73;;;4.63;;
7324;SDS011;3703;48.016;7.802;2022-07-19T00:32:47;4.90;;;4.40;;
7324;SDS011;3703;48.016;7.802;2022-07-19T00:35:35;5.53;;;4.83;;
7324;SDS011;3703;48.016;7.802;2022-07-19T00:38:24;7.50;;;4.97;;
7324;SDS011;3703;48.016;7.802;2022-07-19T00:41:12;5.17;;;4.67;;
7324;SDS011;3703;48.016;7.802;2022-07-19T00:44:00;5.93;;;5.17;;
7324;SDS011;3703;48.016;7.802;2022-07-19T00:46:48;5.10;;;4.67;;
7324;SDS011;3703;48.016;7.802;2022-07-19T00:49:36;5.10;;;4.13;;
7324;SDS011;3703;48.016;7.802;2022-07-19T00:52:24;5.57;;;4.77;;
7324;SDS011;3703;48.016;7.802;2022-07-19T00:55:16;4.80;;;4.40;;
7324;SDS011;3703;48.016;7.802;2022-07-19T00:58:05;5.20;;;4.70;;
7324;SDS011;3703;48.016;7.802;2022-07-19T01:00:55;5.47;;;4.93;;
7324;SDS011;3703;48.016;7.802;2022-07-19T01:03:43;4.70;;;4.20;;
7324;SDS011;3703;48.016;7.802;2022-07-19T01:06:31;4.70;;;4.10;;
7324;SDS011;3703;48.016;7.802;2022-07-19T01:09:19;6.10;;;4.67;;
7324;SDS011;3703;48.016;7.802;2022-07-19T01:12:08;4.83;;;4.40;;
7324;SDS011;3703;48.016;7.802;2022-07-19T01:14:56;4.77;;;4.20;;
7324;SDS011;3703;48.016;7.802;2022-07-19T01:17:44;5.00;;;4.50;;
7324;SDS011;3703;48.016;7.802;2022-07-19T01:20:32;6.30;;;4.47;;
7324;SDS011;3703;48.016;7.802;2022-07-19T01:23:22;5.17;;;4.47;;
7324;SDS011;3703;48.016;7.802;2022-07-19T01:26:10;5.37;;;4.53;;
7324;SDS011;3703;48.016;7.802;2022-07-19T01:28:57;4.50;;;4.10;;
7324;SDS011;3703;48.016;7.802;2022-07-19T01:31:45;6.60;;;4.40;;
7324;SDS011;3703;48.016;7.802;2022-07-19T01:34:33;5.10;;;4.60;;
7324;SDS011;3703;48.016;7.802;2022-07-19T01:37:21;5.37;;;4.20;;
7324;SDS011;3703;48.016;7.802;2022-07-19T01:40:11;6.27;;;4.10;;
7324;SDS011;3703;48.016;7.802;2022-07-19T01:43:01;6.70;;;4.30;;
7324;SDS011;3703;48.016;7.802;2022-07-19T01:45:48;5.90;;;3.90;;
7324;SDS011;3703;48.016;7.802;2022-07-19T01:48:39;4.80;;;4.20;;
7324;SDS011;3703;48.016;7.802;2022-07-19T01:51:26;7.23;;;4.47;;
7324;SDS011;3703;48.016;7.802;2022-07-19T01:54:14;5.43;;;4.47;;
7324;SDS011;3703;48.016;7.802;2022-07-19T01:57:03;6.10;;;4.27;;
7324;SDS011;3703;48.016;7.802;2022-07-19T01:59:51;5.43;;;4.23;;
7324;SDS011;3703;48.016;7.802;2022-07-19T02:02:39;6.00;;;4.40;;
7324;SDS011;3703;48.016;7.802;2022-07-19T02:05:26;6.70;;;4.40;;
7324;SDS011;3703;48.016;7.802;2022-07-19T02:08:14;5.43;;;4.70;;
7324;SDS011;3703;48.016;7.802;2022-07-19T02:11:02;4.87;;;4.47;;
7324;SDS011;3703;48.016;7.802;2022-07-19T02:14:12;6.50;;;4.17;;
7324;SDS011;3703;48.016;7.802;2022-07-19T02:16:59;5.87;;;4.60;;
7324;SDS011;3703;48.016;7.802;2022-07-19T02:19:47;4.60;;;4.20;;
7324;SDS011;3703;48.016;7.802;2022-07-19T02:22:35;7.30;;;4.57;;
7324;SDS011;3703;48.016;7.802;2022-07-19T02:25:23;4.87;;;4.37;;
7324;SDS011;3703;48.016;7.802;2022-07-19T02:28:10;4.97;;;4.47;;
7324;SDS011;3703;48.016;7.802;2022-07-19T02:30:59;5.40;;;4.23;;
7324;SDS011;3703;48.016;7.802;2022-07-19T02:33:47;5.67;;;4.60;;
7324;SDS011;3703;48.016;7.802;2022-07-19T02:36:35;5.17;;;4.60;;
7324;SDS011;3703;48.016;7.802;2022-07-19T02:39:23;5.87;;;4.30;;
7324;SDS011;3703;48.016;7.802;2022-07-19T02:42:10;4.40;;;4.00;;
7324;SDS011;3703;48.016;7.802;2022-07-19T02:44:58;5.00;;;4.50;;
7324;SDS011;3703;48.016;7.802;2022-07-19T02:47:47;4.80;;;4.23;;
7324;SDS011;3703;48.016;7.802;2022-07-19T02:50:35;5.30;;;4.87;;
7324;SDS011;3703;48.016;7.802;2022-07-19T02:53:23;6.43;;;4.50;;
7324;SDS011;3703;48.016;7.802;2022-07-19T02:56:11;5.30;;;4.43;;
7324;SDS011;3703;48.016;7.802;2022-07-19T02:58:58;5.30;;;4.80;;
7324;SDS011;3703;48.016;7.802;2022-07-19T03:01:46;4.73;;;4.27;;
7324;SDS011;3703;48.016;7.802;2022-07-19T03:04:35;4.70;;;4.30;;
7324;SDS011;3703;48.016;7.802;2022-07-19T03:07:23;5.53;;;4.40;;
7324;SDS011;3703;48.016;7.802;2022-07-19T03:10:11;4.53;;;4.13;;
7324;SDS011;3703;48.016;7.802;2022-07-19T03:12:58;4.17;;;3.73;;
7324;SDS011;3703;48.016;7.802;2022-07-19T03:15:46;5.37;;;4.60;;
7324;SDS011;3703;48.016;7.802;2022-07-19T03:18:34;5.13;;;4.10;;
7324;SDS011;3703;48.016;7.802;2022-07-19T03:21:23;5.37;;;4.23;;
7324;SDS011;3703;48.016;7.802;2022-07-19T03:24:11;4.53;;;4.07;;
7324;SDS011;3703;48.016;7.802;2022-07-19T03:26:59;5.63;;;4.07;;
7324;SDS011;3703;48.016;7.802;2022-07-19T03:29:46;4.73;;;4.23;;
7324;SDS011;3703;48.016;7.802;2022-07-19T03:32:42;5.20;;;4.53;;
7324;SDS011;3703;48.016;7.802;2022-07-19T03:35:30;4.73;;;4.23;;
7324;SDS011;3703;48.016;7.802;2022-07-19T03:38:18;6.47;;;4.70;;
7324;SDS011;3703;48.016;7.802;2022-07-19T03:41:06;5.77;;;4.20;;
7324;SDS011;3703;48.016;7.802;2022-07-19T03:43:54;4.63;;;3.93;;
7324;SDS011;3703;48.016;7.802;2022-07-19T03:46:41;7.13;;;4.17;;
7324;SDS011;3703;48.016;7.802;2022-07-19T03:49:30;4.73;;;4.33;;
7324;SDS011;3703;48.016;7.802;2022-07-19T03:52:18;6.87;;;4.13;;
7324;SDS011;3703;48.016;7.802;2022-07-19T03:55:06;4.37;;;3.97;;
7324;SDS011;3703;48.016;7.802;2022-07-19T03:57:54;4.83;;;4.10;;
7324;SDS011;3703;48.016;7.802;2022-07-19T04:00:42;4.13;;;3.80;;
7324;SDS011;3703;48.016;7.802;2022-07-19T04:03:31;5.27;;;3.70;;
7324;SDS011;3703;48.016;7.802;2022-07-19T04:06:24;6.83;;;4.20;;
7324;SDS011;3703;48.016;7.802;2022-07-19T04:09:12;4.47;;;4.07;;
7324;SDS011;3703;48.016;7.802;2022-07-19T04:12:00;4.23;;;3.93;;
7324;SDS011;3703;48.016;7.802;2022-07-19T04:14:48;4.43;;;4.03;;
7324;SDS011;3703;48.016;7.802;2022-07-19T04:17:35;4.40;;;4.00;;
7324;SDS011;3703;48.016;7.802;2022-07-19T04:20:23;5.27;;;4.00;;
7324;SDS011;3703;48.016;7.802;2022-07-19T04:23:12;5.93;;;4.27;;
7324;SDS011;3703;48.016;7.802;2022-07-19T04:26:00;4.80;;;4.20;;
7324;SDS011;3703;48.016;7.802;2022-07-19T04:28:47;5.47;;;4.13;;
7324;SDS011;3703;48.016;7.802;2022-07-19T04:31:35;4.87;;;4.30;;
7324;SDS011;3703;48.016;7.802;2022-07-19T04:34:23;6.50;;;4.47;;
7324;SDS011;3703;48.016;7.802;2022-07-19T04:37:10;7.40;;;4.20;;
7324;SDS011;3703;48.016;7.802;2022-07-19T04:39:59;6.03;;;4.80;;
7324;SDS011;3703;48.016;7.802;2022-07-19T04:42:47;21.27;;;5.20;;
7324;SDS011;3703;48.016;7.802;2022-07-19T04:45:35;8.13;;;4.80;;
7324;SDS011;3703;48.016;7.802;2022-07-19T04:48:25;6.53;;;4.50;;
7324;SDS011;3703;48.016;7.802;2022-07-19T04:51:13;5.57;;;4.37;;
7324;SDS011;3703;48.016;7.802;2022-07-19T04:54:00;6.23;;;5.03;;
7324;SDS011;3703;48.016;7.802;2022-07-19T04:56:49;7.17;;;5.00;;
7324;SDS011;3703;48.016;7.802;2022-07-19T04:59:37;6.83;;;5.00;;
7324;SDS011;3703;48.016;7.802;2022-07-19T05:02:25;6.07;;;4.70;;
7324;SDS011;3703;48.016;7.802;2022-07-19T05:05:13;7.00;;;4.73;;
7324;SDS011;3703;48.016;7.802;2022-07-19T05:08:01;6.73;;;4.97;;
7324;SDS011;3703;48.016;7.802;2022-07-19T05:10:49;8.80;;;5.10;;
7324;SDS011;3703;48.016;7.802;2022-07-19T05:13:38;8.33;;;4.60;;
7324;SDS011;3703;48.016;7.802;2022-07-19T05:16:26;7.10;;;5.13;;
7324;SDS011;3703;48.016;7.802;2022-07-19T05:19:14;5.17;;;4.67;;
7324;SDS011;3703;48.016;7.802;2022-07-19T05:22:01;6.47;;;4.87;;
7324;SDS011;3703;48.016;7.802;2022-07-19T05:24:49;5.53;;;4.30;;
7324;SDS011;3703;48.016;7.802;2022-07-19T05:27:37;4.77;;;4.03;;
7324;SDS011;3703;48.016;7.802;2022-07-19T05:30:26;5.50;;;4.70;;
7324;SDS011;3703;48.016;7.802;2022-07-19T05:33:15;5.47;;;4.97;;
7324;SDS011;3703;48.016;7.802;2022-07-19T05:36:02;6.93;;;5.73;;
7324;SDS011;3703;48.016;7.802;2022-07-19T05:38:51;6.60;;;5.40;;
7324;SDS011;3703;48.016;7.802;2022-07-19T05:41:39;7.53;;;4.77;;
7324;SDS011;3703;48.016;7.802;2022-07-19T05:44:28;6.77;;;5.37;;
7324;SDS011;3703;48.016;7.802;2022-07-19T05:47:17;6.17;;;4.70;;
7324;SDS011;3703;48.016;7.802;2022-07-19T05:50:05;5.60;;;4.60;;
7324;SDS011;3703;48.016;7.802;2022-07-19T05:52:53;6.63;;;5.00;;
7324;SDS011;3703;48.016;7.802;2022-07-19T05:55:41;7.73;;;4.67;;
7324;SDS011;3703;48.016;7.802;2022-07-19T05:58:29;7.03;;;5.00;;
7324;SDS011;3703;48.016;7.802;2022-07-19T06:01:17;9.27;;;4.90;;
7324;SDS011;3703;48.016;7.802;2022-07-19T06:04:06;5.60;;;4.70;;
7324;SDS011;3703;48.016;7.802;2022-07-19T06:06:53;12.67;;;4.63;;
7324;SDS011;3703;48.016;7.802;2022-07-19T06:09:42;5.73;;;4.30;;
7324;SDS011;3703;48.016;7.802;2022-07-19T06:12:30;7.23;;;4.77;;
7324;SDS011;3703;48.016;7.802;2022-07-19T06:15:17;6.00;;;4.27;;
7324;SDS011;3703;48.016;7.802;2022-07-19T06:18:05;7.37;;;5.03;;
7324;SDS011;3703;48.016;7.802;2022-07-19T06:20:54;5.70;;;4.40;;
7324;SDS011;3703;48.016;7.802;2022-07-19T06:23:42;8.40;;;4.70;;
7324;SDS011;3703;48.016;7.802;2022-07-19T06:26:29;10.47;;;6.10;;
7324;SDS011;3703;48.016;7.802;2022-07-19T06:29:17;15.97;;;5.53;;
7324;SDS011;3703;48.016;7.802;2022-07-19T06:32:05;9.23;;;5.20;;
7324;SDS011;3703;48.016;7.802;2022-07-19T06:34:52;10.80;;;5.50;;
7324;SDS011;3703;48.016;7.802;2022-07-19T06:37:41;10.80;;;5.50;;
7324;SDS011;3703;48.016;7.802;2022-07-19T06:40:29;13.50;;;5.70;;
7324;SDS011;3703;48.016;7.802;2022-07-19T06:43:17;14.20;;;5.90;;
7324;SDS011;3703;48.016;7.802;2022-07-19T06:46:05;9.43;;;5.33;;
7324;SDS011;3703;48.016;7.802;2022-07-19T06:48:53;10.80;;;5.60;;
7324;SDS011;3703;48.016;7.802;2022-07-19T06:51:40;10.90;;;5.20;;
7324;SDS011;3703;48.016;7.802;2022-07-19T06:54:29;11.03;;;5.47;;
7324;SDS011;3703;48.016;7.802;2022-07-19T06:57:17;9.73;;;4.50;;
7324;SDS011;3703;48.016;7.802;2022-07-19T07:00:05;7.03;;;4.53;;
7324;SDS011;3703;48.016;7.802;2022-07-19T07:02:55;5.83;;;5.03;;
7324;SDS011;3703;48.016;7.802;2022-07-19T07:05:43;9.23;;;4.70;;
7324;SDS011;3703;48.016;7.802;2022-07-19T07:08:31;7.43;;;4.67;;
7324;SDS011;3703;48.016;7.802;2022-07-19T07:11:20;6.47;;;4.63;;
7324;SDS011;3703;48.016;7.802;2022-07-19T07:14:07;7.60;;;5.60;;
7324;SDS011;3703;48.016;7.802;2022-07-19T07:16:55;9.13;;;5.13;;
7324;SDS011;3703;48.016;7.802;2022-07-19T07:19:43;6.17;;;4.53;;
7324;SDS011;3703;48.016;7.802;2022-07-19T07:22:30;6.53;;;4.50;;
7324;SDS011;3703;48.016;7.802;2022-07-19T07:25:18;6.33;;;4.80;;
7324;SDS011;3703;48.016;7.802;2022-07-19T07:28:07;6.83;;;4.67;;
7324;SDS011;3703;48.016;7.802;2022-07-19T07:30:55;5.57;;;4.90;;
7324;SDS011;3703;48.016;7.802;2022-07-19T07:33:43;7.73;;;4.87;;
7324;SDS011;3703;48.016;7.802;2022-07-19T07:36:30;5.70;;;4.53;;
7324;SDS011;3703;48.016;7.802;2022-07-19T07:39:18;10.17;;;4.60;;
7324;SDS011;3703;48.016;7.802;2022-07-19T07:42:06;7.43;;;4.57;;
7324;SDS011;3703;48.016;7.802;2022-07-19T07:44:55;6.20;;;4.00;;
7324;SDS011;3703;48.016;7.802;2022-07-19T07:47:45;7.20;;;4.20;;
7324;SDS011;3703;48.016;7.802;2022-07-19T07:50:32;5.33;;;4.13;;
7324;SDS011;3703;48.016;7.802;2022-07-19T07:53:20;5.67;;;4.60;;
7324;SDS011;3703;48.016;7.802;2022-07-19T07:56:08;5.97;;;4.47;;
7324;SDS011;3703;48.016;7.802;2022-07-19T07:58:55;6.57;;;3.97;;
7324;SDS011;3703;48.016;7.802;2022-07-19T08:01:44;6.37;;;3.90;;
7324;SDS011;3703;48.016;7.802;2022-07-19T08:04:32;6.20;;;4.33;;
7324;SDS011;3703;48.016;7.802;2022-07-19T08:07:20;7.40;;;4.73;;
7324;SDS011;3703;48.016;7.802;2022-07-19T08:10:08;6.23;;;4.00;;
7324;SDS011;3703;48.016;7.802;2022-07-19T08:12:56;7.37;;;4.80;;
7324;SDS011;3703;48.016;7.802;2022-07-19T08:15:44;5.20;;;4.20;;
7324;SDS011;3703;48.016;7.802;2022-07-19T08:18:33;5.93;;;4.43;;
7324;SDS011;3703;48.016;7.802;2022-07-19T08:21:21;4.60;;;4.20;;
7324;SDS011;3703;48.016;7.802;2022-07-19T08:24:09;7.67;;;4.53;;
7324;SDS011;3703;48.016;7.802;2022-07-19T08:26:58;4.93;;;4.40;;
7324;SDS011;3703;48.016;7.802;2022-07-19T08:29:45;4.47;;;4.07;;
7324;SDS011;3703;48.016;7.802;2022-07-19T08:32:33;5.00;;;4.43;;
7324;SDS011;3703;48.016;7.802;2022-07-19T08:35:22;5.63;;;4.30;;
7324;SDS011;3703;48.016;7.802;2022-07-19T08:38:10;5.17;;;4.67;;
7324;SDS011;3703;48.016;7.802;2022-07-19T08:40:58;5.23;;;4.70;;
7324;SDS011;3703;48.016;7.802;2022-07-19T08:43:48;5.13;;;4.70;;
7324;SDS011;3703;48.016;7.802;2022-07-19T08:46:37;9.30;;;4.60;;
7324;SDS011;3703;48.016;7.802;2022-07-19T08:49:25;5.50;;;4.37;;
7324;SDS011;3703;48.016;7.802;2022-07-19T08:52:15;5.00;;;4.20;;
7324;SDS011;3703;48.016;7.802;2022-07-19T08:55:04;6.33;;;3.70;;
7324;SDS011;3703;48.016;7.802;2022-07-19T08:57:53;7.37;;;4.47;;
7324;SDS011;3703;48.016;7.802;2022-07-19T09:00:42;5.47;;;4.10;;
7324;SDS011;3703;48.016;7.802;2022-07-19T09:03:30;6.93;;;4.17;;
7324;SDS011;3703;48.016;7.802;2022-07-19T09:06:18;7.43;;;3.93;;
7324;SDS011;3703;48.016;7.802;2022-07-19T09:09:07;5.10;;;4.60;;
7324;SDS011;3703;48.016;7.802;2022-07-19T09:11:56;4.93;;;4.23;;
7324;SDS011;3703;48.016;7.802;2022-07-19T09:14:53;6.67;;;4.10;;
7324;SDS011;3703;48.016;7.802;2022-07-19T09:17:41;5.83;;;4.10;;
7324;SDS011;3703;48.016;7.802;2022-07-19T09:20:28;5.90;;;4.40;;
7324;SDS011;3703;48.016;7.802;2022-07-19T09:23:16;5.30;;;3.97;;
7324;SDS011;3703;48.016;7.802;2022-07-19T09:26:06;5.37;;;4.30;;
7324;SDS011;3703;48.016;7.802;2022-07-19T09:28:53;4.90;;;4.07;;
7324;SDS011;3703;48.016;7.802;2022-07-19T09:34:49;4.53;;;3.90;;
7324;SDS011;3703;48.016;7.802;2022-07-19T09:37:39;4.50;;;4.10;;
7324;SDS011;3703;48.016;7.802;2022-07-19T09:40:29;5.13;;;4.03;;
7324;SDS011;3703;48.016;7.802;2022-07-19T09:43:20;4.23;;;3.60;;
7324;SDS011;3703;48.016;7.802;2022-07-19T09:46:25;6.67;;;3.80;;
7324;SDS011;3703;48.016;7.802;2022-07-19T09:49:16;6.03;;;3.70;;
7324;SDS011;3703;48.016;7.802;2022-07-19T09:52:04;4.00;;;3.50;;
7324;SDS011;3703;48.016;7.802;2022-07-19T09:54:55;5.30;;;3.83;;
7324;SDS011;3703;48.016;7.802;2022-07-19T09:57:44;5.07;;;3.70;;
7324;SDS011;3703;48.016;7.802;2022-07-19T10:00:35;5.03;;;3.50;;
7324;SDS011;3703;48.016;7.802;2022-07-19T10:03:25;4.17;;;3.80;;
7324;SDS011;3703;48.016;7.802;2022-07-19T10:06:13;5.43;;;3.90;;
7324;SDS011;3703;48.016;7.802;2022-07-19T10:09:01;5.87;;;4.33;;
7324;SDS011;3703;48.016;7.802;2022-07-19T10:11:51;5.13;;;3.77;;
7324;SDS011;3703;48.016;7.802;2022-07-19T10:14:39;5.10;;;3.87;;
7324;SDS011;3703;48.016;7.802;2022-07-19T10:17:30;5.97;;;4.47;;
7324;SDS011;3703;48.016;7.802;2022-07-19T10:20:24;4.10;;;3.67;;
7324;SDS011;3703;48.016;7.802;2022-07-19T10:23:13;4.60;;;3.90;;
7324;SDS011;3703;48.016;7.802;2022-07-19T10:26:01;4.47;;;3.50;;
7324;SDS011;3703;48.016;7.802;2022-07-19T10:28:49;3.83;;;3.53;;
7324;SDS011;3703;48.016;7.802;2022-07-19T10:32:01;5.33;;;3.80;;
7324;SDS011;3703;48.016;7.802;2022-07-19T10:34:56;6.00;;;3.60;;
7324;SDS011;3703;48.016;7.802;2022-07-19T10:38:08;4.33;;;3.60;;
7324;SDS011;3703;48.016;7.802;2022-07-19T10:40:57;4.53;;;3.53;;
7324;SDS011;3703;48.016;7.802;2022-07-19T10:43:48;7.07;;;3.90;;
7324;SDS011;3703;48.016;7.802;2022-07-19T10:46:55;6.67;;;3.43;;
7324;SDS011;3703;48.016;7.802;2022-07-19T10:49:44;3.97;;;3.27;;
7324;SDS011;3703;48.016;7.802;2022-07-19T10:52:35;4.03;;;3.60;;
7324;SDS011;3703;48.016;7.802;2022-07-19T10:55:24;5.37;;;3.23;;
7324;SDS011;3703;48.016;7.802;2022-07-19T10:58:13;4.30;;;3.47;;
7324;SDS011;3703;48.016;7.802;2022-07-19T11:01:01;5.27;;;3.30;;
7324;SDS011;3703;48.016;7.802;2022-07-19T11:04:22;4.87;;;3.50;;
7324;SDS011;3703;48.016;7.802;2022-07-19T11:07:18;4.43;;;3.10;;
7324;SDS011;3703;48.016;7.802;2022-07-19T11:10:11;3.83;;;3.20;;
7324;SDS011;3703;48.016;7.802;2022-07-19T11:12:58;4.47;;;3.10;;
7324;SDS011;3703;48.016;7.802;2022-07-19T11:15:53;4.37;;;3.40;;
7324;SDS011;3703;48.016;7.802;2022-07-19T11:18:42;6.20;;;3.57;;
7324;SDS011;3703;48.016;7.802;2022-07-19T11:21:30;3.80;;;3.47;;
7324;SDS011;3703;48.016;7.802;2022-07-19T11:24:20;5.00;;;3.63;;
7324;SDS011;3703;48.016;7.802;2022-07-19T11:27:09;5.80;;;3.30;;
7324;SDS011;3703;48.016;7.802;2022-07-19T11:29:58;6.30;;;3.47;;
7324;SDS011;3703;48.016;7.802;2022-07-19T11:32:50;5.00;;;3.20;;
7324;SDS011;3703;48.016;7.802;2022-07-19T11:35:40;3.60;;;3.20;;
7324;SDS011;3703;48.016;7.802;2022-07-19T11:38:33;3.90;;;3.50;;
7324;SDS011;3703;48.016;7.802;2022-07-19T11:41:26;3.80;;;3.40;;
7324;SDS011;3703;48.016;7.802;2022-07-19T11:44:17;5.67;;;3.47;;
7324;SDS011;3703;48.016;7.802;2022-07-19T11:47:05;3.53;;;3.23;;
7324;SDS011;3703;48.016;7.802;2022-07-19T11:49:53;3.90;;;3.17;;
7324;SDS011;3703;48.016;7.802;2022-07-19T11:52:44;5.73;;;3.57;;
7324;SDS011;3703;48.016;7.802;2022-07-19T11:55:37;7.07;;;3.30;;
7324;SDS011;3703;48.016;7.802;2022-07-19T11:58:26;5.73;;;3.27;;
7324;SDS011;3703;48.016;7.802;2022-07-19T12:01:15;5.00;;;3.57;;
7324;SDS011;3703;48.016;7.802;2022-07-19T12:04:12;4.67;;;3.27;;
7324;SDS011;3703;48.016;7.802;2022-07-19T12:07:00;3.53;;;3.20;;
7324;SDS011;3703;48.016;7.802;2022-07-19T12:09:48;6.73;;;3.90;;
7324;SDS011;3703;48.016;7.802;2022-07-19T12:12:39;4.47;;;3.23;;
7324;SDS011;3703;48.016;7.802;2022-07-19T12:15:41;10.77;;;3.87;;
7324;SDS011;3703;48.016;7.802;2022-07-19T12:18:42;8.10;;;3.80;;
7324;SDS011;3703;48.016;7.802;2022-07-19T12:21:40;7.03;;;3.77;;
7324;SDS011;3703;48.016;7.802;2022-07-19T12:24:28;6.70;;;3.93;;
7324;SDS011;3703;48.016;7.802;2022-07-19T12:27:17;6.03;;;4.27;;
7324;SDS011;3703;48.016;7.802;2022-07-19T12:30:06;3.90;;;3.50;;
7324;SDS011;3703;48.016;7.802;2022-07-19T12:33:09;4.40;;;3.40;;
7324;SDS011;3703;48.016;7.802;2022-07-19T12:36:00;6.00;;;3.80;;
7324;SDS011;3703;48.016;7.802;2022-07-19T12:38:47;7.80;;;3.73;;
7324;SDS011;3703;48.016;7.802;2022-07-19T12:41:35;4.53;;;3.70;;
7324;SDS011;3703;48.016;7.802;2022-07-19T12:44:23;7.13;;;3.57;;
7324;SDS011;3703;48.016;7.802;2022-07-19T12:47:11;5.70;;;3.80;;
7324;SDS011;3703;48.016;7.802;2022-07-19T12:49:59;5.70;;;3.77;;
7324;SDS011;3703;48.016;7.802;2022-07-19T12:52:48;6.50;;;3.50;;
7324;SDS011;3703;48.016;7.802;2022-07-19T12:55:38;7.68;;;3.88;;
7324;SDS011;3703;48.016;7.802;2022-07-19T12:58:28;5.75;;;4.20;;
7324;SDS011;3703;48.016;7.802;2022-07-19T13:01:33;4.57;;;3.30;;
7324;SDS011;3703;48.016;7.802;2022-07-19T13:04:21;4.07;;;3.55;;
7324;SDS011;3703;48.016;7.802;2022-07-19T13:07:09;6.53;;;3.63;;
7324;SDS011;3703;48.016;7.802;2022-07-19T13:10:00;6.28;;;3.40;;
7324;SDS011;3703;48.016;7.802;2022-07-19T13:12:48;5.47;;;3.30;;
7324;SDS011;3703;48.016;7.802;2022-07-19T13:15:35;4.07;;;3.30;;
7324;SDS011;3703;48.016;7.802;2022-07-19T13:18:23;4.43;;;3.20;;
7324;SDS011;3703;48.016;7.802;2022-07-19T13:21:11;9.30;;;3.45;;
7324;SDS011;3703;48.016;7.802;2022-07-19T13:23:59;6.65;;;3.33;;
7324;SDS011;3703;48.016;7.802;2022-07-19T13:26:48;3.85;;;3.50;;
7324;SDS011;3703;48.016;7.802;2022-07-19T13:29:36;3.65;;;3.35;;
7324;SDS011;3703;48.016;7.802;2022-07-19T13:32:24;6.68;;;3.60;;
7324;SDS011;3703;48.016;7.802;2022-07-19T13:35:12;7.28;;;3.42;;
7324;SDS011;3703;48.016;7.802;2022-07-19T13:38:02;3.42;;;3.10;;
7324;SDS011;3703;48.016;7.802;2022-07-19T13:40:49;4.60;;;3.47;;
7324;SDS011;3703;48.016;7.802;2022-07-19T13:43:38;3.78;;;2.90;;
7324;SDS011;3703;48.016;7.802;2022-07-19T13:46:26;4.13;;;3.38;;
7324;SDS011;3703;48.016;7.802;2022-07-19T13:49:14;4.38;;;3.03;;
7324;SDS011;3703;48.016;7.802;2022-07-19T13:52:02;7.15;;;3.40;;
7324;SDS011;3703;48.016;7.802;2022-07-19T13:54:50;4.65;;;3.30;;
7324;SDS011;3703;48.016;7.802;2022-07-19T13:57:37;6.05;;;3.45;;
7324;SDS011;3703;48.016;7.802;2022-07-19T14:00:27;3.45;;;3.10;;
7324;SDS011;3703;48.016;7.802;2022-07-19T14:03:15;4.68;;;3.15;;
7324;SDS011;3703;48.016;7.802;2022-07-19T14:06:03;4.78;;;3.30;;
7324;SDS011;3703;48.016;7.802;2022-07-19T14:08:52;7.10;;;3.20;;
7324;SDS011;3703;48.016;7.802;2022-07-19T14:11:40;5.20;;;3.38;;
7324;SDS011;3703;48.016;7.802;2022-07-19T14:14:30;6.72;;;3.03;;
7324;SDS011;3703;48.016;7.802;2022-07-19T14:17:19;3.80;;;3.10;;
7324;SDS011;3703;48.016;7.802;2022-07-19T14:20:07;4.90;;;3.28;;
7324;SDS011;3703;48.016;7.802;2022-07-19T14:22:57;5.28;;;3.65;;
7324;SDS011;3703;48.016;7.802;2022-07-19T14:25:45;5.18;;;3.28;;
7324;SDS011;3703;48.016;7.802;2022-07-19T14:28:32;3.78;;;3.40;;
7324;SDS011;3703;48.016;7.802;2022-07-19T14:31:20;5.47;;;3.42;;
7324;SDS011;3703;48.016;7.802;2022-07-19T14:34:10;6.53;;;3.20;;
7324;SDS011;3703;48.016;7.802;2022-07-19T14:36:57;4.45;;;3.38;;
7324;SDS011;3703;48.016;7.802;2022-07-19T14:39:45;6.70;;;3.30;;
7324;SDS011;3703;48.016;7.802;2022-07-19T14:42:33;9.63;;;3.70;;
7324;SDS011;3703;48.016;7.802;2022-07-19T14:45:20;5.50;;;3.47;;
7324;SDS011;3703;48.016;7.802;2022-07-19T14:48:08;4.75;;;3.45;;
7324;SDS011;3703;48.016;7.802;2022-07-19T14:50:57;7.13;;;3.65;;
7324;SDS011;3703;48.016;7.802;2022-07-19T14:53:45;7.35;;;3.33;;
7324;SDS011;3703;48.016;7.802;2022-07-19T14:56:33;3.88;;;3.38;;
7324;SDS011;3703;48.016;7.802;2022-07-19T14:59:21;3.95;;;3.28;;
7324;SDS011;3703;48.016;7.802;2022-07-19T15:02:10;4.57;;;3.40;;
7324;SDS011;3703;48.016;7.802;2022-07-19T15:04:58;6.40;;;3.47;;
7324;SDS011;3703;48.016;7.802;2022-07-19T15:07:47;9.38;;;3.33;;
7324;SDS011;3703;48.016;7.802;2022-07-19T15:10:35;6.25;;;3.58;;
7324;SDS011;3703;48.016;7.802;2022-07-19T15:13:23;5.85;;;3.42;;
7324;SDS011;3703;48.016;7.802;2022-07-19T15:16:10;7.68;;;3.47;;
7324;SDS011;3703;48.016;7.802;2022-07-19T15:18:58;6.15;;;3.53;;
7324;SDS011;3703;48.016;7.802;2022-07-19T15:21:46;5.40;;;3.15;;
7324;SDS011;3703;48.016;7.802;2022-07-19T15:24:35;6.25;;;3.35;;
7324;SDS011;3703;48.016;7.802;2022-07-19T15:27:23;4.45;;;3.20;;
7324;SDS011;3703;48.016;7.802;2022-07-19T15:30:10;4.28;;;3.15;;
7324;SDS011;3703;48.016;7.802;2022-07-19T15:33:03;7.40;;;3.10;;
7324;SDS011;3703;48.016;7.802;2022-07-19T15:35:50;4.68;;;3.28;;
7324;SDS011;3703;48.016;7.802;2022-07-19T15:38:38;4.38;;;3.35;;
7324;SDS011;3703;48.016;7.802;2022-07-19T15:41:27;6.05;;;3.40;;
7324;SDS011;3703;48.016;7.802;2022-07-19T15:44:15;4.47;;;3.72;;
7324;SDS011;3703;48.016;7.802;2022-07-19T15:47:03;7.68;;;3.55;;
7324;SDS011;3703;48.016;7.802;2022-07-19T15:49:51;5.80;;;3.33;;
7324;SDS011;3703;48.016;7.802;2022-07-19T15:52:38;4.40;;;3.72;;
7324;SDS011;3703;48.016;7.802;2022-07-19T15:55:27;4.65;;;3.50;;
7324;SDS011;3703;48.016;7.802;2022-07-19T15:58:16;4.85;;;3.10;;
7324;SDS011;3703;48.016;7.802;2022-07-19T16:01:04;4.72;;;3.25;;
7324;SDS011;3703;48.016;7.802;2022-07-19T16:03:52;6.32;;;3.70;;
7324;SDS011;3703;48.016;7.802;2022-07-19T16:06:39;7.00;;;3.58;;
7324;SDS011;3703;48.016;7.802;2022-07-19T16:09:27;6.00;;;3.55;;
7324;SDS011;3703;48.016;7.802;2022-07-19T16:12:15;6.55;;;3.50;;
7324;SDS011;3703;48.016;7.802;2022-07-19T16:15:04;6.10;;;3.53;;
7324;SDS011;3703;48.016;7.802;2022-07-19T16:17:53;6.20;;;3.80;;
7324;SDS011;3703;48.016;7.802;2022-07-19T16:20:43;3.70;;;3.38;;
7324;SDS011;3703;48.016;7.802;2022-07-19T16:23:30;5.20;;;3.40;;
7324;SDS011;3703;48.016;7.802;2022-07-19T16:26:18;4.55;;;3.53;;
7324;SDS011;3703;48.016;7.802;2022-07-19T16:29:06;5.22;;;3.70;;
7324;SDS011;3703;48.016;7.802;2022-07-19T16:31:57;6.20;;;3.50;;
7324;SDS011;3703;48.016;7.802;2022-07-19T16:34:45;3.85;;;3.47;;
7324;SDS011;3703;48.016;7.802;2022-07-19T16:37:33;5.13;;;3.47;;
7324;SDS011;3703;48.016;7.802;2022-07-19T16:40:22;4.50;;;3.50;;
7324;SDS011;3703;48.016;7.802;2022-07-19T16:43:09;4.00;;;3.60;;
7324;SDS011;3703;48.016;7.802;2022-07-19T16:45:57;4.50;;;3.30;;
7324;SDS011;3703;48.016;7.802;2022-07-19T16:48:46;5.43;;;3.60;;
7324;SDS011;3703;48.016;7.802;2022-07-19T16:51:35;3.90;;;3.38;;
7324;SDS011;3703;48.016;7.802;2022-07-19T16:54:23;5.00;;;3.60;;
7324;SDS011;3703;48.016;7.802;2022-07-19T16:57:11;7.00;;;3.75;;
7324;SDS011;3703;48.016;7.802;2022-07-19T16:59:59;5.25;;;3.45;;
7324;SDS011;3703;48.016;7.802;2022-07-19T17:02:46;4.25;;;3.58;;
7324;SDS011;3703;48.016;7.802;2022-07-19T17:05:36;4.40;;;3.58;;
7324;SDS011;3703;48.016;7.802;2022-07-19T17:08:23;5.38;;;3.60;;
7324;SDS011;3703;48.016;7.802;2022-07-19T17:11:11;5.53;;;3.67;;
7324;SDS011;3703;48.016;7.802;2022-07-19T17:13:59;4.50;;;3.72;;
7324;SDS011;3703;48.016;7.802;2022-07-19T17:16:46;4.60;;;3.60;;
7324;SDS011;3703;48.016;7.802;2022-07-19T17:19:35;4.68;;;3.45;;
7324;SDS011;3703;48.016;7.802;2022-07-19T17:22:24;5.15;;;3.53;;
7324;SDS011;3703;48.016;7.802;2022-07-19T17:25:12;5.40;;;3.70;;
7324;SDS011;3703;48.016;7.802;2022-07-19T17:28:01;3.90;;;3.42;;
7324;SDS011;3703;48.016;7.802;2022-07-19T17:30:50;8.90;;;3.90;;
7324;SDS011;3703;48.016;7.802;2022-07-19T17:33:37;3.88;;;3.40;;